Time;durP1;ratioP1;P1;durP2;ratioP2;P2;SDS_P1;SDS_P2;PMS_P1;PMS_P2;Temp;Humidity;BMP_temperature;BMP_pressure;BME280_temperature;BME280_humidity;BME280_pressure;Samples;Min_cycle;Max_cycle;Signal;HPM_P1;HPM_P2
2021/05/17 00:08:49;;;;;;;14.40;9.80;;;;;;;9.97;100.00;99226.53;713026;1183;114682;-74
2021/05/17 00:24:11;;;;;;;13.17;9.57;;;;;;;9.80;100.00;99218.58;712582;1206;113788;-72
2021/05/17 00:39:32;;;;;;;13.67;9.00;;;;;;;9.51;100.00;99225.96;712558;1178;115108;-74
2021/05/17 00:54:52;;;;;;;12.37;8.33;;;;;;;9.17;100.00;99219.66;717426;1202;115436;-73
2021/05/17 01:10:18;;;;;;;19.00;11.77;;;;;;;9.12;100.00;99220.13;712394;1202;115361;-73
2021/05/17 01:25:40;;;;;;;16.95;11.05;;;;;;;8.99;100.00;99225.75;712432;1202;114555;-73
2021/05/17 01:41:04;;;;;;;21.50;13.30;;;;;;;8.87;100.00;99232.19;712703;1202;115336;-74
2021/05/17 01:56:26;;;;;;;17.93;9.85;;;;;;;8.64;100.00;99232.64;712520;1177;114431;-73
2021/05/17 02:11:46;;;;;;;26.08;16.50;;;;;;;8.36;100.00;99236.23;712386;1206;114074;-73
2021/05/17 02:27:07;;;;;;;34.35;18.10;;;;;;;8.17;100.00;99248.42;712449;1202;114678;-74
2021/05/17 02:42:29;;;;;;;32.95;18.35;;;;;;;7.95;100.00;99273.13;712465;1177;114437;-74
2021/05/17 02:57:50;;;;;;;35.20;17.75;;;;;;;7.93;100.00;99285.48;712431;1186;114356;-74
2021/05/17 03:13:22;;;;;;;30.80;16.03;;;;;;;8.05;100.00;99283.52;712554;1206;114328;-77
2021/05/17 03:28:42;;;;;;;26.20;14.80;;;;;;;8.18;100.00;99288.42;712717;1206;113954;-78
2021/05/17 03:44:02;;;;;;;26.38;15.73;;;;;;;8.42;100.00;99290.50;712480;1202;114578;-77
2021/05/17 03:59:23;;;;;;;24.65;15.68;;;;;;;8.89;100.00;99284.34;712638;1202;114612;-77
2021/05/17 04:14:43;;;;;;;27.03;14.53;;;;;;;9.35;100.00;99298.16;712720;1196;113851;-74
2021/05/17 04:30:06;;;;;;;26.63;14.23;;;;;;;10.02;100.00;99312.51;712622;1203;115339;-73
2021/05/17 04:45:26;;;;;;;22.83;12.47;;;;;;;10.56;100.00;99312.32;714570;1206;114189;-74
2021/05/17 05:16:17;;;;;;;11.05;8.13;;;;;;;11.93;100.00;99307.45;712451;1200;114457;-75
2021/05/17 05:31:51;;;;;;;12.20;9.40;;;;;;;12.63;100.00;99301.48;712229;1206;114036;-79
2021/05/17 05:47:17;;;;;;;9.93;8.07;;;;;;;13.39;100.00;99316.63;712355;1180;114019;-71
2021/05/17 06:02:38;;;;;;;11.07;8.70;;;;;;;14.01;100.00;99314.75;712325;1203;114336;-75
2021/05/17 06:17:59;;;;;;;14.10;7.85;;;;;;;14.69;100.00;99304.08;712328;1203;114954;-76
2021/05/17 06:33:21;;;;;;;14.23;7.83;;;;;;;15.20;100.00;99283.86;712372;1203;114467;-76
2021/05/17 06:48:42;;;;;;;7.63;4.23;;;;;;;15.87;100.00;99277.27;712210;1203;115289;-74
2021/05/17 07:04:09;;;;;;;3.95;2.55;;;;;;;16.55;100.00;99276.58;712265;1206;115150;-76
2021/05/17 07:19:29;;;;;;;6.07;3.00;;;;;;;17.32;100.00;99291.41;712243;1184;113847;-76
2021/05/17 07:34:50;;;;;;;5.47;2.93;;;;;;;18.15;100.00;99275.00;712634;1205;114414;-76
2021/05/17 07:50:10;;;;;;;4.25;2.35;;;;;;;19.20;100.00;99273.85;713273;1209;114815;-76
2021/05/17 08:05:31;;;;;;;3.23;2.00;;;;;;;19.66;88.69;99274.45;712800;1202;115290;-73
2021/05/17 08:20:52;;;;;;;2.38;1.50;;;;;;;20.11;79.80;99268.08;712257;1203;113812;-75
2021/05/17 08:36:14;;;;;;;4.15;1.90;;;;;;;20.43;76.49;99271.39;712200;1180;113778;-73
2021/05/17 08:51:35;;;;;;;2.10;1.20;;;;;;;21.61;73.23;99262.08;712321;1202;114220;-73
2021/05/17 09:06:57;;;;;;;234.87;114.17;;;;;;;21.63;67.36;99251.17;712257;1207;114047;-78
2021/05/17 09:22:20;;;;;;;8.00;5.15;;;;;;;22.09;65.23;99246.80;712211;1205;115425;-77
2021/05/17 09:37:48;;;;;;;4.05;1.40;;;;;;;22.64;63.13;99261.50;712457;1202;115261;-77
2021/05/17 09:53:23;;;;;;;5.83;1.60;;;;;;;22.63;61.76;99269.77;712540;1203;113904;-77
2021/05/17 10:08:44;;;;;;;399.35;179.65;;;;;;;21.65;60.65;99247.22;712844;1193;114238;-75
2021/05/17 10:24:04;;;;;;;11.28;5.83;;;;;;;22.14;59.01;99240.77;713003;1206;114937;-76
2021/05/17 10:39:41;;;;;;;24.60;12.50;;;;;;;21.84;58.49;99229.23;713057;1203;114005;-76
2021/05/17 10:55:08;;;;;;;40.70;24.00;;;;;;;22.75;57.30;99230.41;713594;1203;114293;-75
2021/05/17 11:10:45;;;;;;;2.15;1.35;;;;;;;23.14;55.85;99222.53;712864;1203;114620;-80
2021/05/17 11:26:11;;;;;;;3.40;1.60;;;;;;;24.51;54.91;99218.39;712837;1203;113697;-75
2021/05/17 11:41:33;;;;;;;2.53;1.57;;;;;;;23.75;55.09;99225.28;715235;1206;115346;-73
2021/05/17 11:56:57;;;;;;;3.23;1.45;;;;;;;22.64;55.03;99224.09;722067;1202;115001;-72
2021/05/17 12:12:26;;;;;;;2.70;1.55;;;;;;;21.94;56.62;99216.06;716558;1203;114694;-73
2021/05/17 12:27:50;;;;;;;2.83;1.60;;;;;;;21.28;59.86;99215.42;713194;1203;115022;-74
2021/05/17 12:43:17;;;;;;;2.28;1.60;;;;;;;20.51;62.80;99224.98;712778;1203;114310;-72
2021/05/17 12:58:40;;;;;;;5.25;2.00;;;;;;;19.39;65.64;99242.80;712896;1202;114986;-73
2021/05/17 13:14:25;;;;;;;3.50;2.38;;;;;;;19.67;65.37;99241.51;713829;1206;113709;-73
2021/05/17 13:45:23;;;;;;;6.43;3.03;;;;;;;20.31;65.56;99241.23;713814;1203;115344;-74
2021/05/17 14:00:45;;;;;;;8.50;3.50;;;;;;;20.56;64.83;99226.95;713286;1203;114407;-73
2021/05/17 14:16:05;;;;;;;6.60;3.80;;;;;;;21.02;63.67;99225.48;713459;1206;114766;-73
2021/05/17 14:31:26;;;;;;;5.20;1.90;;;;;;;22.34;62.27;99224.31;714163;1202;114808;-73
2021/05/17 14:46:47;;;;;;;4.73;2.70;;;;;;;22.06;61.19;99229.39;713148;1205;114753;-73
2021/05/17 15:02:08;;;;;;;9.38;4.48;;;;;;;20.66;65.02;99229.89;712809;1203;114826;-73
2021/05/17 15:17:28;;;;;;;9.33;6.57;;;;;;;19.07;70.36;99234.89;712676;1180;115006;-73
2021/05/17 15:32:50;;;;;;;13.08;6.85;;;;;;;18.46;74.60;99231.78;712673;1205;115692;-73
2021/05/17 15:48:28;;;;;;;195.30;87.40;;;;;;;18.14;75.60;99233.55;712535;1203;115061;-73
2021/05/17 16:03:49;;;;;;;19.63;11.40;;;;;;;17.97;78.27;99238.50;712853;1203;115525;-75
2021/05/17 16:34:48;;;;;;;9.40;6.60;;;;;;;17.66;82.97;99237.34;712505;1208;114350;-76
2021/05/17 16:50:10;;;;;;;33.90;21.75;;;;;;;17.73;83.73;99253.23;727943;1203;115180;-75
2021/05/17 17:05:31;;;;;;;33.70;21.03;;;;;;;17.20;85.99;99265.51;713593;1181;115540;-74
2021/05/17 17:20:52;;;;;;;13.60;9.15;;;;;;;17.03;87.37;99264.28;712953;1182;114503;-75
2021/05/17 17:36:13;;;;;;;8.60;6.08;;;;;;;16.74;90.79;99269.69;713019;1203;114205;-75
2021/05/17 17:51:43;;;;;;;11.33;9.70;;;;;;;16.55;93.40;99262.50;713044;1203;114910;-75
2021/05/17 18:07:04;;;;;;;35.03;20.68;;;;;;;16.57;96.94;99260.48;712809;1202;114388;-75
2021/05/17 18:22:24;;;;;;;31.07;14.53;;;;;;;16.16;99.86;99275.39;712994;1203;114253;-75
2021/05/17 18:37:45;;;;;;;19.30;8.25;;;;;;;15.58;100.00;99294.13;712352;1181;114353;-76
2021/05/17 18:53:05;;;;;;;21.50;12.30;;;;;;;15.20;100.00;99319.00;712426;1203;115338;-75
2021/05/17 19:08:26;;;;;;;10.57;7.03;;;;;;;15.01;100.00;99344.23;712570;1179;114439;-75
2021/05/17 19:23:48;;;;;;;13.40;9.10;;;;;;;14.93;100.00;99339.07;712968;1181;115193;-74
2021/05/17 19:39:08;;;;;;;10.50;7.80;;;;;;;14.79;100.00;99327.53;713389;1191;114531;-74
2021/05/17 19:54:29;;;;;;;7.40;5.60;;;;;;;14.60;100.00;99316.52;713198;1184;115228;-75
2021/05/17 20:09:50;;;;;;;12.33;8.37;;;;;;;14.58;100.00;99323.83;713085;1203;114924;-74
2021/05/17 20:25:11;;;;;;;14.87;10.23;;;;;;;14.39;100.00;99338.39;712743;1180;114197;-73
2021/05/17 20:40:32;;;;;;;9.53;7.33;;;;;;;14.38;100.00;99307.73;712466;1205;115709;-73
2021/05/17 20:55:53;;;;;;;15.65;10.83;;;;;;;14.40;100.00;99286.46;712683;1179;114064;-74
2021/05/17 21:11:15;;;;;;;16.60;10.20;;;;;;;14.59;100.00;99279.77;712678;1194;115504;-75
2021/05/17 21:26:35;;;;;;;15.00;9.83;;;;;;;14.35;100.00;99268.53;712563;1203;114649;-74
2021/05/17 21:41:56;;;;;;;15.60;10.40;;;;;;;14.27;100.00;99274.73;712408;1206;114234;-74
2021/05/17 21:57:16;;;;;;;9.10;7.47;;;;;;;14.11;100.00;99267.83;712817;1209;115749;-73
2021/05/17 22:12:40;;;;;;;12.13;7.50;;;;;;;14.10;100.00;99271.46;712559;1205;114532;-74
2021/05/17 22:28:00;;;;;;;8.77;6.70;;;;;;;13.98;100.00;99265.02;712694;1205;115046;-74
2021/05/17 22:43:21;;;;;;;8.03;6.80;;;;;;;13.91;100.00;99282.55;712814;1206;114492;-74
2021/05/17 22:58:42;;;;;;;7.38;6.50;;;;;;;13.78;100.00;99257.66;712729;1203;114836;-74
2021/05/17 23:14:03;;;;;;;15.20;10.07;;;;;;;13.50;100.00;99278.53;712687;1203;115206;-73
2021/05/17 23:29:23;;;;;;;11.53;7.40;;;;;;;13.65;100.00;99271.45;712100;1203;115489;-73
2021/05/17 23:44:43;;;;;;;10.97;7.23;;;;;;;13.52;100.00;99263.34;712101;1203;115483;-73
